sensor_id;sensor_type;location;lat;lon;timestamp;P1;durP1;ratioP1;P2;durP2;ratioP2
12892;SDS011;6514;48.606;9.222;2022-07-10T00:02:14;5.03;;;3.53;;
12892;SDS011;6514;48.606;9.222;2022-07-10T00:04:42;6.40;;;4.43;;
12892;SDS011;6514;48.606;9.222;2022-07-10T00:07:09;5.13;;;3.83;;
12892;SDS011;6514;48.606;9.222;2022-07-10T00:09:38;4.57;;;3.90;;
12892;SDS011;6514;48.606;9.222;2022-07-10T00:12:05;4.50;;;4.10;;
12892;SDS011;6514;48.606;9.222;2022-07-10T00:14:32;5.13;;;3.93;;
12892;SDS011;6514;48.606;9.222;2022-07-10T00:19:28;4.20;;;3.90;;
12892;SDS011;6514;48.606;9.222;2022-07-10T00:21:55;4.63;;;4.20;;
12892;SDS011;6514;48.606;9.222;2022-07-10T00:24:22;5.33;;;4.03;;
12892;SDS011;6514;48.606;9.222;2022-07-10T00:26:51;6.00;;;4.57;;
12892;SDS011;6514;48.606;9.222;2022-07-10T00:29:18;4.70;;;4.30;;
12892;SDS011;6514;48.606;9.222;2022-07-10T00:31:45;4.30;;;3.53;;
12892;SDS011;6514;48.606;9.222;2022-07-10T00:34:12;4.50;;;4.10;;
12892;SDS011;6514;48.606;9.222;2022-07-10T00:36:40;4.17;;;3.87;;
12892;SDS011;6514;48.606;9.222;2022-07-10T00:39:08;4.53;;;3.87;;
12892;SDS011;6514;48.606;9.222;2022-07-10T00:41:35;4.27;;;3.87;;
12892;SDS011;6514;48.606;9.222;2022-07-10T00:44:04;5.87;;;3.80;;
12892;SDS011;6514;48.606;9.222;2022-07-10T00:46:31;6.83;;;4.30;;
12892;SDS011;6514;48.606;9.222;2022-07-10T00:48:59;4.13;;;3.83;;
12892;SDS011;6514;48.606;9.222;2022-07-10T00:51:27;4.60;;;3.77;;
12892;SDS011;6514;48.606;9.222;2022-07-10T00:53:54;4.13;;;3.73;;
12892;SDS011;6514;48.606;9.222;2022-07-10T00:56:23;3.90;;;3.50;;
12892;SDS011;6514;48.606;9.222;2022-07-10T00:58:51;4.60;;;4.10;;
12892;SDS011;6514;48.606;9.222;2022-07-10T01:01:20;4.07;;;3.60;;
12892;SDS011;6514;48.606;9.222;2022-07-10T01:03:48;4.50;;;4.00;;
12892;SDS011;6514;48.606;9.222;2022-07-10T01:06:15;4.63;;;3.67;;
12892;SDS011;6514;48.606;9.222;2022-07-10T01:08:44;4.30;;;3.90;;
12892;SDS011;6514;48.606;9.222;2022-07-10T01:11:12;5.60;;;4.00;;
12892;SDS011;6514;48.606;9.222;2022-07-10T01:13:40;5.60;;;3.97;;
12892;SDS011;6514;48.606;9.222;2022-07-10T01:16:08;3.90;;;3.60;;
12892;SDS011;6514;48.606;9.222;2022-07-10T01:18:36;4.40;;;4.00;;
12892;SDS011;6514;48.606;9.222;2022-07-10T01:21:05;4.80;;;4.00;;
12892;SDS011;6514;48.606;9.222;2022-07-10T01:23:32;4.97;;;3.80;;
12892;SDS011;6514;48.606;9.222;2022-07-10T01:26:00;4.80;;;4.30;;
12892;SDS011;6514;48.606;9.222;2022-07-10T01:28:27;4.40;;;4.00;;
12892;SDS011;6514;48.606;9.222;2022-07-10T01:30:56;5.37;;;3.70;;
12892;SDS011;6514;48.606;9.222;2022-07-10T01:33:23;4.43;;;4.03;;
12892;SDS011;6514;48.606;9.222;2022-07-10T01:35:50;6.37;;;3.73;;
12892;SDS011;6514;48.606;9.222;2022-07-10T01:38:19;4.20;;;3.70;;
12892;SDS011;6514;48.606;9.222;2022-07-10T01:40:46;4.30;;;3.90;;
12892;SDS011;6514;48.606;9.222;2022-07-10T01:43:13;5.37;;;3.73;;
12892;SDS011;6514;48.606;9.222;2022-07-10T01:45:41;4.27;;;3.87;;
12892;SDS011;6514;48.606;9.222;2022-07-10T01:48:08;4.00;;;3.60;;
12892;SDS011;6514;48.606;9.222;2022-07-10T01:50:35;4.10;;;3.80;;
12892;SDS011;6514;48.606;9.222;2022-07-10T01:53:03;4.23;;;3.80;;
12892;SDS011;6514;48.606;9.222;2022-07-10T01:55:32;3.87;;;3.57;;
12892;SDS011;6514;48.606;9.222;2022-07-10T01:57:59;4.67;;;3.63;;
12892;SDS011;6514;48.606;9.222;2022-07-10T02:00:27;4.10;;;3.80;;
12892;SDS011;6514;48.606;9.222;2022-07-10T02:02:54;4.73;;;3.77;;
12892;SDS011;6514;48.606;9.222;2022-07-10T02:05:39;4.30;;;3.87;;
12892;SDS011;6514;48.606;9.222;2022-07-10T02:08:06;7.33;;;3.73;;
12892;SDS011;6514;48.606;9.222;2022-07-10T02:10:35;4.17;;;3.87;;
12892;SDS011;6514;48.606;9.222;2022-07-10T02:13:02;5.37;;;3.70;;
12892;SDS011;6514;48.606;9.222;2022-07-10T02:15:29;4.97;;;3.70;;
12892;SDS011;6514;48.606;9.222;2022-07-10T02:17:56;4.87;;;3.60;;
12892;SDS011;6514;48.606;9.222;2022-07-10T02:20:23;4.53;;;4.13;;
12892;SDS011;6514;48.606;9.222;2022-07-10T02:22:51;4.73;;;3.77;;
12892;SDS011;6514;48.606;9.222;2022-07-10T02:25:18;4.30;;;3.90;;
12892;SDS011;6514;48.606;9.222;2022-07-10T02:27:46;4.83;;;4.07;;
12892;SDS011;6514;48.606;9.222;2022-07-10T02:30:14;4.57;;;4.10;;
12892;SDS011;6514;48.606;9.222;2022-07-10T02:32:41;4.60;;;4.20;;
12892;SDS011;6514;48.606;9.222;2022-07-10T02:35:08;4.27;;;3.97;;
12892;SDS011;6514;48.606;9.222;2022-07-10T02:37:35;4.80;;;4.20;;
12892;SDS011;6514;48.606;9.222;2022-07-10T02:40:03;4.87;;;4.30;;
12892;SDS011;6514;48.606;9.222;2022-07-10T02:42:30;4.53;;;4.13;;
12892;SDS011;6514;48.606;9.222;2022-07-10T02:44:59;5.07;;;4.60;;
12892;SDS011;6514;48.606;9.222;2022-07-10T02:47:26;7.33;;;4.47;;
12892;SDS011;6514;48.606;9.222;2022-07-10T02:49:53;5.37;;;4.90;;
12892;SDS011;6514;48.606;9.222;2022-07-10T02:52:20;5.03;;;4.10;;
12892;SDS011;6514;48.606;9.222;2022-07-10T02:54:48;5.47;;;4.97;;
12892;SDS011;6514;48.606;9.222;2022-07-10T02:57:15;6.13;;;5.50;;
12892;SDS011;6514;48.606;9.222;2022-07-10T02:59:43;6.77;;;6.17;;
12892;SDS011;6514;48.606;9.222;2022-07-10T03:02:12;7.20;;;6.50;;
12892;SDS011;6514;48.606;9.222;2022-07-10T03:04:39;9.87;;;7.90;;
12892;SDS011;6514;48.606;9.222;2022-07-10T03:07:06;8.00;;;7.30;;
12892;SDS011;6514;48.606;9.222;2022-07-10T03:09:34;8.43;;;7.50;;
12892;SDS011;6514;48.606;9.222;2022-07-10T03:12:01;8.50;;;7.73;;
12892;SDS011;6514;48.606;9.222;2022-07-10T03:14:28;10.30;;;9.23;;
12892;SDS011;6514;48.606;9.222;2022-07-10T03:16:55;9.07;;;8.27;;
12892;SDS011;6514;48.606;9.222;2022-07-10T03:19:24;10.00;;;9.00;;
12892;SDS011;6514;48.606;9.222;2022-07-10T03:21:51;10.07;;;9.07;;
12892;SDS011;6514;48.606;9.222;2022-07-10T03:24:18;12.67;;;11.47;;
12892;SDS011;6514;48.606;9.222;2022-07-10T03:26:46;13.77;;;12.37;;
12892;SDS011;6514;48.606;9.222;2022-07-10T03:29:13;13.40;;;12.00;;
12892;SDS011;6514;48.606;9.222;2022-07-10T03:31:40;13.67;;;12.27;;
12892;SDS011;6514;48.606;9.222;2022-07-10T03:34:08;14.03;;;12.60;;
12892;SDS011;6514;48.606;9.222;2022-07-10T03:36:37;14.10;;;12.77;;
12892;SDS011;6514;48.606;9.222;2022-07-10T03:39:04;13.83;;;12.53;;
12892;SDS011;6514;48.606;9.222;2022-07-10T03:41:31;13.07;;;11.77;;
12892;SDS011;6514;48.606;9.222;2022-07-10T03:43:59;13.33;;;12.13;;
12892;SDS011;6514;48.606;9.222;2022-07-10T03:46:26;11.57;;;10.47;;
12892;SDS011;6514;48.606;9.222;2022-07-10T03:48:53;12.80;;;11.60;;
12892;SDS011;6514;48.606;9.222;2022-07-10T03:51:20;12.00;;;10.87;;
12892;SDS011;6514;48.606;9.222;2022-07-10T03:53:49;11.47;;;10.30;;
12892;SDS011;6514;48.606;9.222;2022-07-10T03:56:16;12.20;;;11.00;;
12892;SDS011;6514;48.606;9.222;2022-07-10T03:58:57;12.13;;;10.20;;
12892;SDS011;6514;48.606;9.222;2022-07-10T04:01:24;10.00;;;9.07;;
12892;SDS011;6514;48.606;9.222;2022-07-10T04:03:51;10.57;;;9.57;;
12892;SDS011;6514;48.606;9.222;2022-07-10T04:06:19;10.53;;;9.53;;
12892;SDS011;6514;48.606;9.222;2022-07-10T04:08:46;10.97;;;9.90;;
12892;SDS011;6514;48.606;9.222;2022-07-10T04:11:15;11.03;;;9.77;;
12892;SDS011;6514;48.606;9.222;2022-07-10T04:13:42;11.17;;;9.47;;
12892;SDS011;6514;48.606;9.222;2022-07-10T04:16:09;10.17;;;9.13;;
12892;SDS011;6514;48.606;9.222;2022-07-10T04:18:38;11.17;;;10.13;;
12892;SDS011;6514;48.606;9.222;2022-07-10T04:21:05;12.03;;;10.17;;
12892;SDS011;6514;48.606;9.222;2022-07-10T04:23:32;10.53;;;9.40;;
12892;SDS011;6514;48.606;9.222;2022-07-10T04:26:00;9.93;;;9.10;;
12892;SDS011;6514;48.606;9.222;2022-07-10T04:28:28;12.07;;;9.27;;
12892;SDS011;6514;48.606;9.222;2022-07-10T04:30:56;10.07;;;9.07;;
12892;SDS011;6514;48.606;9.222;2022-07-10T04:33:23;9.40;;;8.60;;
12892;SDS011;6514;48.606;9.222;2022-07-10T04:35:50;9.10;;;8.03;;
12892;SDS011;6514;48.606;9.222;2022-07-10T04:38:17;9.00;;;8.20;;
12892;SDS011;6514;48.606;9.222;2022-07-10T04:40:45;8.67;;;7.87;;
12892;SDS011;6514;48.606;9.222;2022-07-10T04:43:12;8.60;;;7.80;;
12892;SDS011;6514;48.606;9.222;2022-07-10T04:45:40;8.53;;;7.30;;
12892;SDS011;6514;48.606;9.222;2022-07-10T04:48:07;9.90;;;7.83;;
12892;SDS011;6514;48.606;9.222;2022-07-10T04:50:35;8.10;;;7.33;;
12892;SDS011;6514;48.606;9.222;2022-07-10T04:53:02;7.87;;;7.07;;
12892;SDS011;6514;48.606;9.222;2022-07-10T04:55:29;8.93;;;7.17;;
12892;SDS011;6514;48.606;9.222;2022-07-10T04:57:57;9.70;;;7.60;;
12892;SDS011;6514;48.606;9.222;2022-07-10T05:00:24;7.87;;;7.17;;
12892;SDS011;6514;48.606;9.222;2022-07-10T05:02:53;7.93;;;7.13;;
12892;SDS011;6514;48.606;9.222;2022-07-10T05:05:20;9.97;;;7.30;;
12892;SDS011;6514;48.606;9.222;2022-07-10T05:07:47;7.80;;;7.00;;
12892;SDS011;6514;48.606;9.222;2022-07-10T05:10:15;7.67;;;6.30;;
12892;SDS011;6514;48.606;9.222;2022-07-10T05:12:42;7.40;;;6.70;;
12892;SDS011;6514;48.606;9.222;2022-07-10T05:15:09;7.03;;;6.43;;
12892;SDS011;6514;48.606;9.222;2022-07-10T05:17:37;7.40;;;6.57;;
12892;SDS011;6514;48.606;9.222;2022-07-10T05:20:06;6.90;;;6.20;;
12892;SDS011;6514;48.606;9.222;2022-07-10T05:22:33;6.77;;;6.07;;
12892;SDS011;6514;48.606;9.222;2022-07-10T05:25:01;6.60;;;6.00;;
12892;SDS011;6514;48.606;9.222;2022-07-10T05:27:28;6.03;;;5.43;;
12892;SDS011;6514;48.606;9.222;2022-07-10T05:29:55;6.63;;;5.20;;
12892;SDS011;6514;48.606;9.222;2022-07-10T05:32:22;9.13;;;5.07;;
12892;SDS011;6514;48.606;9.222;2022-07-10T05:34:50;6.07;;;4.57;;
12892;SDS011;6514;48.606;9.222;2022-07-10T05:37:19;5.53;;;4.67;;
12892;SDS011;6514;48.606;9.222;2022-07-10T05:39:46;6.43;;;5.00;;
12892;SDS011;6514;48.606;9.222;2022-07-10T05:42:13;4.40;;;4.00;;
12892;SDS011;6514;48.606;9.222;2022-07-10T05:44:40;5.37;;;4.17;;
12892;SDS011;6514;48.606;9.222;2022-07-10T05:47:08;4.60;;;4.00;;
12892;SDS011;6514;48.606;9.222;2022-07-10T05:49:35;3.60;;;3.07;;
12892;SDS011;6514;48.606;9.222;2022-07-10T05:52:03;6.63;;;3.70;;
12892;SDS011;6514;48.606;9.222;2022-07-10T05:54:32;4.63;;;3.13;;
12892;SDS011;6514;48.606;9.222;2022-07-10T05:56:59;4.37;;;2.87;;
12892;SDS011;6514;48.606;9.222;2022-07-10T05:59:26;5.07;;;3.43;;
12892;SDS011;6514;48.606;9.222;2022-07-10T06:01:53;4.70;;;3.10;;
12892;SDS011;6514;48.606;9.222;2022-07-10T06:04:20;5.03;;;3.53;;
12892;SDS011;6514;48.606;9.222;2022-07-10T06:06:48;3.10;;;2.80;;
12892;SDS011;6514;48.606;9.222;2022-07-10T06:09:15;4.57;;;3.03;;
12892;SDS011;6514;48.606;9.222;2022-07-10T06:11:43;3.50;;;2.77;;
12892;SDS011;6514;48.606;9.222;2022-07-10T06:14:13;4.73;;;3.60;;
12892;SDS011;6514;48.606;9.222;2022-07-10T06:16:40;4.30;;;2.60;;
12892;SDS011;6514;48.606;9.222;2022-07-10T06:19:07;4.13;;;2.63;;
12892;SDS011;6514;48.606;9.222;2022-07-10T06:21:35;4.20;;;2.50;;
12892;SDS011;6514;48.606;9.222;2022-07-10T06:24:02;4.33;;;2.50;;
12892;SDS011;6514;48.606;9.222;2022-07-10T06:26:29;3.80;;;2.93;;
12892;SDS011;6514;48.606;9.222;2022-07-10T06:28:58;4.63;;;2.30;;
12892;SDS011;6514;48.606;9.222;2022-07-10T06:31:25;3.77;;;2.23;;
12892;SDS011;6514;48.606;9.222;2022-07-10T06:33:52;3.07;;;1.90;;
12892;SDS011;6514;48.606;9.222;2022-07-10T06:36:19;2.50;;;1.40;;
12892;SDS011;6514;48.606;9.222;2022-07-10T06:38:47;3.50;;;1.67;;
12892;SDS011;6514;48.606;9.222;2022-07-10T06:41:14;3.93;;;1.80;;
12892;SDS011;6514;48.606;9.222;2022-07-10T06:43:41;2.43;;;1.90;;
12892;SDS011;6514;48.606;9.222;2022-07-10T06:46:10;5.77;;;2.10;;
12892;SDS011;6514;48.606;9.222;2022-07-10T06:48:37;3.07;;;2.00;;
12892;SDS011;6514;48.606;9.222;2022-07-10T06:51:05;4.40;;;1.60;;
12892;SDS011;6514;48.606;9.222;2022-07-10T06:53:33;3.27;;;2.00;;
12892;SDS011;6514;48.606;9.222;2022-07-10T06:56:00;5.23;;;1.40;;
12892;SDS011;6514;48.606;9.222;2022-07-10T06:58:27;3.63;;;1.60;;
12892;SDS011;6514;48.606;9.222;2022-07-10T07:00:55;2.93;;;1.60;;
12892;SDS011;6514;48.606;9.222;2022-07-10T07:03:23;5.63;;;2.10;;
12892;SDS011;6514;48.606;9.222;2022-07-10T07:05:50;3.30;;;1.70;;
12892;SDS011;6514;48.606;9.222;2022-07-10T07:08:17;4.17;;;1.70;;
12892;SDS011;6514;48.606;9.222;2022-07-10T07:10:45;2.33;;;1.73;;
12892;SDS011;6514;48.606;9.222;2022-07-10T07:13:12;4.80;;;2.00;;
12892;SDS011;6514;48.606;9.222;2022-07-10T07:15:39;3.10;;;1.77;;
12892;SDS011;6514;48.606;9.222;2022-07-10T07:18:13;2.33;;;1.40;;
12892;SDS011;6514;48.606;9.222;2022-07-10T07:20:42;3.47;;;1.67;;
12892;SDS011;6514;48.606;9.222;2022-07-10T07:23:27;3.97;;;1.80;;
12892;SDS011;6514;48.606;9.222;2022-07-10T07:25:54;2.50;;;1.43;;
12892;SDS011;6514;48.606;9.222;2022-07-10T07:28:22;3.67;;;1.60;;
12892;SDS011;6514;48.606;9.222;2022-07-10T07:30:49;5.83;;;1.93;;
12892;SDS011;6514;48.606;9.222;2022-07-10T07:33:16;4.73;;;1.80;;
12892;SDS011;6514;48.606;9.222;2022-07-10T07:35:45;3.60;;;1.77;;
12892;SDS011;6514;48.606;9.222;2022-07-10T07:38:12;4.73;;;1.87;;
12892;SDS011;6514;48.606;9.222;2022-07-10T07:40:41;3.77;;;1.50;;
12892;SDS011;6514;48.606;9.222;2022-07-10T07:43:08;3.00;;;1.53;;
12892;SDS011;6514;48.606;9.222;2022-07-10T07:45:36;3.43;;;1.77;;
12892;SDS011;6514;48.606;9.222;2022-07-10T07:48:04;6.00;;;1.70;;
12892;SDS011;6514;48.606;9.222;2022-07-10T07:50:32;4.83;;;1.47;;
12892;SDS011;6514;48.606;9.222;2022-07-10T07:53:01;4.30;;;1.50;;
12892;SDS011;6514;48.606;9.222;2022-07-10T07:55:29;3.03;;;1.57;;
12892;SDS011;6514;48.606;9.222;2022-07-10T07:57:58;3.53;;;1.60;;
12892;SDS011;6514;48.606;9.222;2022-07-10T08:00:26;2.83;;;1.40;;
12892;SDS011;6514;48.606;9.222;2022-07-10T08:02:53;2.30;;;1.63;;
12892;SDS011;6514;48.606;9.222;2022-07-10T08:05:21;3.37;;;1.53;;
12892;SDS011;6514;48.606;9.222;2022-07-10T08:07:50;2.20;;;1.47;;
12892;SDS011;6514;48.606;9.222;2022-07-10T08:10:19;2.90;;;1.70;;
12892;SDS011;6514;48.606;9.222;2022-07-10T08:12:47;4.27;;;1.67;;
12892;SDS011;6514;48.606;9.222;2022-07-10T08:15:15;4.50;;;1.63;;
12892;SDS011;6514;48.606;9.222;2022-07-10T08:17:42;3.27;;;1.50;;
12892;SDS011;6514;48.606;9.222;2022-07-10T08:20:10;4.47;;;1.60;;
12892;SDS011;6514;48.606;9.222;2022-07-10T08:22:38;3.27;;;1.60;;
12892;SDS011;6514;48.606;9.222;2022-07-10T08:25:06;2.73;;;1.50;;
12892;SDS011;6514;48.606;9.222;2022-07-10T08:27:34;3.57;;;1.40;;
12892;SDS011;6514;48.606;9.222;2022-07-10T08:30:02;3.07;;;1.13;;
12892;SDS011;6514;48.606;9.222;2022-07-10T08:32:29;2.83;;;1.50;;
12892;SDS011;6514;48.606;9.222;2022-07-10T08:34:56;3.80;;;1.57;;
12892;SDS011;6514;48.606;9.222;2022-07-10T08:37:24;4.57;;;1.40;;
12892;SDS011;6514;48.606;9.222;2022-07-10T08:39:52;2.43;;;1.50;;
12892;SDS011;6514;48.606;9.222;2022-07-10T08:42:19;6.73;;;1.60;;
12892;SDS011;6514;48.606;9.222;2022-07-10T08:44:48;3.87;;;1.57;;
12892;SDS011;6514;48.606;9.222;2022-07-10T08:47:18;5.27;;;1.50;;
12892;SDS011;6514;48.606;9.222;2022-07-10T08:49:48;4.60;;;1.30;;
12892;SDS011;6514;48.606;9.222;2022-07-10T08:52:20;3.60;;;1.37;;
12892;SDS011;6514;48.606;9.222;2022-07-10T08:54:50;3.77;;;1.20;;
12892;SDS011;6514;48.606;9.222;2022-07-10T08:57:17;3.33;;;1.20;;
12892;SDS011;6514;48.606;9.222;2022-07-10T08:59:45;3.50;;;1.20;;
12892;SDS011;6514;48.606;9.222;2022-07-10T09:02:13;2.57;;;1.20;;
12892;SDS011;6514;48.606;9.222;2022-07-10T09:04:41;2.97;;;1.33;;
12892;SDS011;6514;48.606;9.222;2022-07-10T09:07:08;2.37;;;1.50;;
12892;SDS011;6514;48.606;9.222;2022-07-10T09:09:50;2.10;;;1.10;;
12892;SDS011;6514;48.606;9.222;2022-07-10T09:12:17;3.47;;;1.20;;
12892;SDS011;6514;48.606;9.222;2022-07-10T09:14:45;5.00;;;1.17;;
12892;SDS011;6514;48.606;9.222;2022-07-10T09:17:13;1.90;;;1.00;;
12892;SDS011;6514;48.606;9.222;2022-07-10T09:19:40;3.03;;;1.27;;
12892;SDS011;6514;48.606;9.222;2022-07-10T09:22:09;2.80;;;1.30;;
12892;SDS011;6514;48.606;9.222;2022-07-10T09:24:36;2.90;;;1.27;;
12892;SDS011;6514;48.606;9.222;2022-07-10T09:27:04;3.17;;;1.33;;
12892;SDS011;6514;48.606;9.222;2022-07-10T09:29:31;2.43;;;1.30;;
12892;SDS011;6514;48.606;9.222;2022-07-10T09:31:59;3.10;;;1.20;;
12892;SDS011;6514;48.606;9.222;2022-07-10T09:34:38;3.10;;;1.33;;
12892;SDS011;6514;48.606;9.222;2022-07-10T09:37:22;2.40;;;1.17;;
12892;SDS011;6514;48.606;9.222;2022-07-10T09:39:52;3.27;;;1.20;;
12892;SDS011;6514;48.606;9.222;2022-07-10T09:42:24;2.73;;;1.20;;
12892;SDS011;6514;48.606;9.222;2022-07-10T09:44:51;3.60;;;1.40;;
12892;SDS011;6514;48.606;9.222;2022-07-10T09:47:21;5.07;;;1.17;;
12892;SDS011;6514;48.606;9.222;2022-07-10T09:49:50;1.93;;;1.00;;
12892;SDS011;6514;48.606;9.222;2022-07-10T09:52:17;3.07;;;1.60;;
12892;SDS011;6514;48.606;9.222;2022-07-10T09:54:45;2.60;;;1.10;;
12892;SDS011;6514;48.606;9.222;2022-07-10T09:57:12;2.97;;;1.27;;
12892;SDS011;6514;48.606;9.222;2022-07-10T09:59:40;2.73;;;1.23;;
12892;SDS011;6514;48.606;9.222;2022-07-10T10:02:08;3.13;;;1.17;;
12892;SDS011;6514;48.606;9.222;2022-07-10T10:04:36;4.43;;;1.27;;
12892;SDS011;6514;48.606;9.222;2022-07-10T10:07:05;1.47;;;1.07;;
12892;SDS011;6514;48.606;9.222;2022-07-10T10:09:37;4.43;;;1.00;;
12892;SDS011;6514;48.606;9.222;2022-07-10T10:12:07;2.17;;;1.00;;
12892;SDS011;6514;48.606;9.222;2022-07-10T10:14:34;1.77;;;1.10;;
12892;SDS011;6514;48.606;9.222;2022-07-10T10:17:02;1.50;;;1.13;;
12892;SDS011;6514;48.606;9.222;2022-07-10T10:19:33;2.17;;;1.10;;
12892;SDS011;6514;48.606;9.222;2022-07-10T10:22:19;3.50;;;1.13;;
12892;SDS011;6514;48.606;9.222;2022-07-10T10:24:48;4.40;;;2.63;;
12892;SDS011;6514;48.606;9.222;2022-07-10T10:27:15;2.40;;;1.10;;
12892;SDS011;6514;48.606;9.222;2022-07-10T10:29:43;2.10;;;1.20;;
12892;SDS011;6514;48.606;9.222;2022-07-10T10:32:12;2.43;;;1.03;;
12892;SDS011;6514;48.606;9.222;2022-07-10T10:34:40;2.33;;;1.10;;
12892;SDS011;6514;48.606;9.222;2022-07-10T10:39:54;2.23;;;1.00;;
12892;SDS011;6514;48.606;9.222;2022-07-10T10:42:31;2.27;;;1.10;;
12892;SDS011;6514;48.606;9.222;2022-07-10T10:50:33;3.30;;;1.10;;
12892;SDS011;6514;48.606;9.222;2022-07-10T10:53:02;2.27;;;1.00;;
12892;SDS011;6514;48.606;9.222;2022-07-10T10:55:32;3.47;;;1.27;;
12892;SDS011;6514;48.606;9.222;2022-07-10T10:58:11;3.43;;;1.23;;
12892;SDS011;6514;48.606;9.222;2022-07-10T11:00:40;5.33;;;1.20;;
12892;SDS011;6514;48.606;9.222;2022-07-10T11:05:50;1.87;;;1.00;;
12892;SDS011;6514;48.606;9.222;2022-07-10T11:08:37;3.23;;;1.00;;
12892;SDS011;6514;48.606;9.222;2022-07-10T11:13:54;2.03;;;1.13;;
12892;SDS011;6514;48.606;9.222;2022-07-10T11:16:23;3.30;;;1.03;;
12892;SDS011;6514;48.606;9.222;2022-07-10T11:18:51;2.07;;;0.90;;
12892;SDS011;6514;48.606;9.222;2022-07-10T11:21:21;2.43;;;0.97;;
12892;SDS011;6514;48.606;9.222;2022-07-10T11:23:53;3.63;;;0.93;;
12892;SDS011;6514;48.606;9.222;2022-07-10T11:26:24;2.60;;;1.13;;
12892;SDS011;6514;48.606;9.222;2022-07-10T11:28:53;1.77;;;1.00;;
12892;SDS011;6514;48.606;9.222;2022-07-10T11:31:26;2.30;;;0.90;;
12892;SDS011;6514;48.606;9.222;2022-07-10T11:33:55;2.73;;;1.00;;
12892;SDS011;6514;48.606;9.222;2022-07-10T11:36:23;2.60;;;1.10;;
12892;SDS011;6514;48.606;9.222;2022-07-10T11:38:55;2.47;;;0.90;;
12892;SDS011;6514;48.606;9.222;2022-07-10T11:41:23;2.73;;;0.97;;
12892;SDS011;6514;48.606;9.222;2022-07-10T11:43:50;4.20;;;1.07;;
12892;SDS011;6514;48.606;9.222;2022-07-10T11:46:19;2.87;;;1.30;;
12892;SDS011;6514;48.606;9.222;2022-07-10T11:48:47;2.70;;;0.90;;
12892;SDS011;6514;48.606;9.222;2022-07-10T11:51:18;2.60;;;1.07;;
12892;SDS011;6514;48.606;9.222;2022-07-10T11:53:52;1.47;;;0.90;;
12892;SDS011;6514;48.606;9.222;2022-07-10T11:56:20;4.37;;;1.00;;
12892;SDS011;6514;48.606;9.222;2022-07-10T11:58:53;2.20;;;1.10;;
12892;SDS011;6514;48.606;9.222;2022-07-10T12:01:21;1.77;;;0.90;;
12892;SDS011;6514;48.606;9.222;2022-07-10T12:03:55;2.70;;;1.10;;
12892;SDS011;6514;48.606;9.222;2022-07-10T12:06:23;1.83;;;0.90;;
12892;SDS011;6514;48.606;9.222;2022-07-10T12:08:50;2.17;;;1.00;;
12892;SDS011;6514;48.606;9.222;2022-07-10T12:11:18;1.77;;;1.10;;
12892;SDS011;6514;48.606;9.222;2022-07-10T12:13:46;2.07;;;0.90;;
12892;SDS011;6514;48.606;9.222;2022-07-10T12:16:13;2.80;;;1.10;;
12892;SDS011;6514;48.606;9.222;2022-07-10T12:18:42;1.27;;;0.90;;
12892;SDS011;6514;48.606;9.222;2022-07-10T12:21:10;2.57;;;0.90;;
12892;SDS011;6514;48.606;9.222;2022-07-10T12:23:37;3.43;;;1.30;;
12892;SDS011;6514;48.606;9.222;2022-07-10T12:26:07;2.83;;;1.00;;
12892;SDS011;6514;48.606;9.222;2022-07-10T12:28:48;2.07;;;0.83;;
12892;SDS011;6514;48.606;9.222;2022-07-10T12:31:19;1.90;;;0.97;;
12892;SDS011;6514;48.606;9.222;2022-07-10T12:33:51;1.13;;;0.83;;
12892;SDS011;6514;48.606;9.222;2022-07-10T12:36:20;3.23;;;1.00;;
12892;SDS011;6514;48.606;9.222;2022-07-10T12:38:57;4.77;;;0.73;;
12892;SDS011;6514;48.606;9.222;2022-07-10T12:41:24;1.90;;;1.07;;
12892;SDS011;6514;48.606;9.222;2022-07-10T12:43:52;0.90;;;0.70;;
12892;SDS011;6514;48.606;9.222;2022-07-10T12:46:20;2.10;;;0.97;;
12892;SDS011;6514;48.606;9.222;2022-07-10T12:49:02;3.23;;;1.10;;
12892;SDS011;6514;48.606;9.222;2022-07-10T12:51:30;2.87;;;0.80;;
12892;SDS011;6514;48.606;9.222;2022-07-10T12:53:57;1.73;;;0.67;;
12892;SDS011;6514;48.606;9.222;2022-07-10T12:56:32;1.40;;;0.60;;
12892;SDS011;6514;48.606;9.222;2022-07-10T12:58:59;1.40;;;0.70;;
12892;SDS011;6514;48.606;9.222;2022-07-10T13:01:27;1.83;;;0.70;;
12892;SDS011;6514;48.606;9.222;2022-07-10T13:03:59;2.93;;;0.57;;
12892;SDS011;6514;48.606;9.222;2022-07-10T13:06:28;1.80;;;0.77;;
12892;SDS011;6514;48.606;9.222;2022-07-10T13:08:56;2.77;;;0.60;;
12892;SDS011;6514;48.606;9.222;2022-07-10T13:11:23;2.80;;;0.70;;
12892;SDS011;6514;48.606;9.222;2022-07-10T13:13:51;3.03;;;0.80;;
12892;SDS011;6514;48.606;9.222;2022-07-10T13:16:19;1.50;;;0.90;;
12892;SDS011;6514;48.606;9.222;2022-07-10T13:18:46;2.37;;;0.70;;
12892;SDS011;6514;48.606;9.222;2022-07-10T13:21:13;2.07;;;0.80;;
12892;SDS011;6514;48.606;9.222;2022-07-10T13:23:42;2.17;;;0.70;;
12892;SDS011;6514;48.606;9.222;2022-07-10T13:26:09;2.00;;;0.70;;
12892;SDS011;6514;48.606;9.222;2022-07-10T13:28:37;2.03;;;0.60;;
12892;SDS011;6514;48.606;9.222;2022-07-10T13:31:05;1.47;;;0.67;;
12892;SDS011;6514;48.606;9.222;2022-07-10T13:33:33;3.13;;;0.60;;
12892;SDS011;6514;48.606;9.222;2022-07-10T13:36:00;3.90;;;0.77;;
12892;SDS011;6514;48.606;9.222;2022-07-10T13:38:27;1.80;;;1.20;;
12892;SDS011;6514;48.606;9.222;2022-07-10T13:40:56;1.30;;;0.60;;
12892;SDS011;6514;48.606;9.222;2022-07-10T13:43:23;1.20;;;0.60;;
12892;SDS011;6514;48.606;9.222;2022-07-10T13:45:55;1.37;;;0.60;;
12892;SDS011;6514;48.606;9.222;2022-07-10T13:48:23;2.23;;;0.70;;
12892;SDS011;6514;48.606;9.222;2022-07-10T13:50:51;2.70;;;0.60;;
12892;SDS011;6514;48.606;9.222;2022-07-10T13:53:18;1.90;;;0.67;;
12892;SDS011;6514;48.606;9.222;2022-07-10T13:55:46;1.13;;;0.60;;
12892;SDS011;6514;48.606;9.222;2022-07-10T13:58:14;3.57;;;0.80;;
12892;SDS011;6514;48.606;9.222;2022-07-10T14:00:43;1.63;;;0.70;;
12892;SDS011;6514;48.606;9.222;2022-07-10T14:03:10;2.53;;;0.60;;
12892;SDS011;6514;48.606;9.222;2022-07-10T14:05:37;2.53;;;0.60;;
12892;SDS011;6514;48.606;9.222;2022-07-10T14:08:04;1.33;;;0.67;;
12892;SDS011;6514;48.606;9.222;2022-07-10T14:10:32;2.07;;;0.60;;
12892;SDS011;6514;48.606;9.222;2022-07-10T14:12:59;2.00;;;0.60;;
12892;SDS011;6514;48.606;9.222;2022-07-10T14:15:28;1.60;;;0.60;;
12892;SDS011;6514;48.606;9.222;2022-07-10T14:17:55;1.37;;;0.63;;
12892;SDS011;6514;48.606;9.222;2022-07-10T14:20:22;2.13;;;0.70;;
12892;SDS011;6514;48.606;9.222;2022-07-10T14:22:49;3.20;;;0.80;;
12892;SDS011;6514;48.606;9.222;2022-07-10T14:25:17;1.70;;;0.63;;
12892;SDS011;6514;48.606;9.222;2022-07-10T14:27:44;2.93;;;0.53;;
12892;SDS011;6514;48.606;9.222;2022-07-10T14:30:11;3.13;;;0.90;;
12892;SDS011;6514;48.606;9.222;2022-07-10T14:32:40;1.73;;;0.60;;
12892;SDS011;6514;48.606;9.222;2022-07-10T14:35:07;1.57;;;0.60;;
12892;SDS011;6514;48.606;9.222;2022-07-10T14:37:35;1.23;;;0.50;;
12892;SDS011;6514;48.606;9.222;2022-07-10T14:40:02;2.67;;;1.03;;
12892;SDS011;6514;48.606;9.222;2022-07-10T14:42:30;2.10;;;0.90;;
12892;SDS011;6514;48.606;9.222;2022-07-10T14:44:57;2.70;;;0.60;;
12892;SDS011;6514;48.606;9.222;2022-07-10T14:47:24;2.70;;;1.00;;
12892;SDS011;6514;48.606;9.222;2022-07-10T14:49:55;1.03;;;0.53;;
12892;SDS011;6514;48.606;9.222;2022-07-10T14:52:22;2.23;;;1.03;;
12892;SDS011;6514;48.606;9.222;2022-07-10T14:54:52;1.77;;;0.53;;
12892;SDS011;6514;48.606;9.222;2022-07-10T14:57:19;2.73;;;0.87;;
12892;SDS011;6514;48.606;9.222;2022-07-10T14:59:47;2.40;;;0.70;;
12892;SDS011;6514;48.606;9.222;2022-07-10T15:02:14;1.00;;;0.67;;
12892;SDS011;6514;48.606;9.222;2022-07-10T15:04:41;2.53;;;0.80;;
12892;SDS011;6514;48.606;9.222;2022-07-10T15:07:10;1.13;;;0.60;;
12892;SDS011;6514;48.606;9.222;2022-07-10T15:09:37;1.67;;;0.70;;
12892;SDS011;6514;48.606;9.222;2022-07-10T15:12:05;3.30;;;1.50;;
12892;SDS011;6514;48.606;9.222;2022-07-10T15:14:33;1.67;;;0.70;;
12892;SDS011;6514;48.606;9.222;2022-07-10T15:17:00;2.93;;;0.63;;
12892;SDS011;6514;48.606;9.222;2022-07-10T15:19:27;2.30;;;0.60;;
12892;SDS011;6514;48.606;9.222;2022-07-10T15:21:54;2.00;;;0.60;;
12892;SDS011;6514;48.606;9.222;2022-07-10T15:24:23;1.63;;;0.67;;